Time;durP1;ratioP1;P1;durP2;ratioP2;P2;SDS_P1;SDS_P2;PMS_P1;PMS_P2;Temp;Humidity;BMP_temperature;BMP_pressure;BME280_temperature;BME280_humidity;BME280_pressure;Samples;Min_cycle;Max_cycle;Signal;HPM_P1;HPM_P2
2023/06/26 00:01:02;;;;;;;0.05;0.05;;;;;;;20.94;61.02;97531.25;4910924;29;20043;-74
2023/06/26 00:03:31;;;;;;;0.17;0.17;;;;;;;20.96;61.00;97529.09;4910024;29;20107;-74
2023/06/26 00:06:00;;;;;;;0.10;0.10;;;;;;;20.93;61.13;97526.88;4911474;29;20126;-74
2023/06/26 00:08:28;;;;;;;0.10;0.10;;;;;;;21.03;60.89;97532.38;4896504;29;20041;-74
2023/06/26 00:10:56;;;;;;;0.00;0.00;;;;;;;21.06;60.53;97523.72;4907014;29;20048;-74
2023/06/26 00:13:25;;;;;;;0.10;0.10;;;;;;;21.06;60.53;97523.72;4901333;29;20052;-74
2023/06/26 00:15:52;;;;;;;0.00;0.00;;;;;;;21.00;60.32;97530.19;4907104;29;20048;-72
2023/06/26 00:18:23;;;;;;;0.10;0.10;;;;;;;20.98;60.58;97526.91;4903390;29;20056;-72
2023/06/26 00:20:50;;;;;;;0.03;0.03;;;;;;;20.84;60.58;97529.28;4903635;29;20056;-72
2023/06/26 00:23:19;;;;;;;0.10;0.10;;;;;;;20.84;60.66;97521.97;4905707;29;20044;-72
2023/06/26 00:25:46;;;;;;;0.10;0.10;;;;;;;20.75;60.85;97522.72;4912043;29;20036;-72
2023/06/26 00:28:14;;;;;;;0.13;0.13;;;;;;;20.72;60.90;97524.06;4908452;29;20052;-72
2023/06/26 00:30:41;;;;;;;0.10;0.10;;;;;;;20.86;60.29;97524.41;4901669;29;20055;-72
2023/06/26 00:33:09;;;;;;;0.00;0.00;;;;;;;20.65;61.09;97520.75;4913958;29;20059;-71
2023/06/26 00:35:38;;;;;;;0.13;0.13;;;;;;;20.57;60.87;97528.53;4900131;29;20420;-72
2023/06/26 00:38:05;;;;;;;0.10;0.10;;;;;;;20.56;60.88;97530.44;4911109;29;20055;-71
2023/06/26 00:40:33;;;;;;;0.00;0.00;;;;;;;20.56;61.18;97519.56;4905995;29;20037;-72
2023/06/26 00:43:03;;;;;;;0.10;0.10;;;;;;;20.55;61.11;97515.25;4890724;29;20374;-72
2023/06/26 00:45:31;;;;;;;0.10;0.10;;;;;;;20.48;61.01;97525.50;4897700;29;20046;-68
2023/06/26 00:48:12;;;;;;;0.10;0.10;;;;;;;20.52;60.91;97523.91;4903929;29;20052;-69
2023/06/26 00:50:41;;;;;;;0.10;0.10;;;;;;;20.43;61.41;97520.88;4907250;29;20040;-70
2023/06/26 00:53:10;;;;;;;0.03;0.03;;;;;;;20.41;60.82;97516.78;4909940;29;20473;-69
2023/06/26 00:55:37;;;;;;;0.10;0.10;;;;;;;20.20;62.28;97513.03;4897426;29;20040;-69
2023/06/26 00:58:05;;;;;;;0.03;0.03;;;;;;;20.16;62.04;97511.91;4899937;29;20432;-70
2023/06/26 01:00:33;;;;;;;0.10;0.10;;;;;;;20.14;62.44;97511.38;4897962;29;20126;-69
2023/06/26 01:03:00;;;;;;;0.20;0.20;;;;;;;20.17;62.35;97513.53;4906714;29;20049;-69
2023/06/26 01:05:29;;;;;;;0.00;0.00;;;;;;;20.00;63.06;97510.97;4899101;29;20116;-70
2023/06/26 01:07:58;;;;;;;0.10;0.10;;;;;;;19.95;63.20;97507.38;4901054;29;20052;-69
2023/06/26 01:10:27;;;;;;;0.10;0.10;;;;;;;19.99;62.96;97505.81;4891220;29;20048;-69
2023/06/26 01:12:55;;;;;;;0.00;0.00;;;;;;;20.10;62.91;97502.94;4929417;29;20083;-71
2023/06/26 01:15:22;;;;;;;0.13;0.13;;;;;;;20.04;62.79;97506.66;4887864;29;20052;-71
2023/06/26 01:17:52;;;;;;;0.20;0.20;;;;;;;19.93;63.45;97501.41;4894819;29;20421;-69
2023/06/26 01:20:20;;;;;;;0.00;0.00;;;;;;;19.91;63.24;97500.84;4894303;29;20385;-69
2023/06/26 01:23:00;;;;;;;0.10;0.10;;;;;;;19.93;62.84;97496.81;4900267;29;20068;-69
2023/06/26 01:25:38;;;;;;;0.10;0.10;;;;;;;19.97;62.74;97500.63;4910110;29;20095;-69
2023/06/26 01:28:08;;;;;;;0.13;0.13;;;;;;;19.96;62.78;97496.28;4896540;29;20072;-69
2023/06/26 01:30:39;;;;;;;0.10;0.10;;;;;;;19.94;62.69;97492.19;4906084;29;20044;-69
2023/06/26 01:33:07;;;;;;;0.10;0.10;;;;;;;19.91;62.72;97490.84;4918632;29;20084;-72
2023/06/26 01:35:35;;;;;;;0.10;0.10;;;;;;;19.87;62.15;97492.41;4892002;29;20041;-69
2023/06/26 01:38:13;;;;;;;0.10;0.10;;;;;;;19.92;62.64;97497.06;4900604;29;20053;-69
2023/06/26 01:40:40;;;;;;;0.10;0.10;;;;;;;19.85;62.61;97497.25;4912890;29;20051;-69
2023/06/26 01:43:16;;;;;;;0.00;0.00;;;;;;;19.89;62.84;97482.13;4897742;29;20139;-70
2023/06/26 01:45:47;;;;;;;0.00;0.00;;;;;;;19.86;62.65;97479.94;4900735;29;20063;-70
2023/06/26 01:48:17;;;;;;;0.03;0.03;;;;;;;19.84;62.64;97484.78;4910163;29;20504;-69
2023/06/26 01:50:45;;;;;;;0.08;0.08;;;;;;;19.79;62.62;97480.16;4907762;29;20040;-69
2023/06/26 01:53:16;;;;;;;0.10;0.10;;;;;;;19.70;62.68;97478.16;4920628;29;20048;-69
2023/06/26 01:55:47;;;;;;;0.10;0.10;;;;;;;19.64;63.02;97469.16;4895937;29;20508;-69
2023/06/26 01:58:18;;;;;;;0.03;0.03;;;;;;;19.56;63.05;97474.22;4921891;29;20104;-71
2023/06/26 02:00:46;;;;;;;0.17;0.17;;;;;;;19.53;63.53;97466.59;4912145;29;20500;-69
2023/06/26 02:03:14;;;;;;;0.10;0.10;;;;;;;19.46;63.55;97466.78;4901009;29;20048;-69
2023/06/26 02:05:41;;;;;;;0.00;0.00;;;;;;;19.44;63.75;97475.16;4909793;29;20051;-69
2023/06/26 02:08:10;;;;;;;0.03;0.03;;;;;;;19.42;63.89;97471.88;4913180;29;20132;-69
2023/06/26 02:10:37;;;;;;;0.10;0.10;;;;;;;19.41;64.03;97470.22;4917132;29;20040;-69
2023/06/26 02:13:05;;;;;;;0.03;0.03;;;;;;;19.40;63.74;97468.63;4918710;29;20082;-69
2023/06/26 02:15:34;;;;;;;0.08;0.08;;;;;;;19.39;64.00;97480.53;4909098;29;20056;-69
2023/06/26 02:18:01;;;;;;;0.10;0.10;;;;;;;19.34;63.87;97468.81;4916081;29;20516;-70
2023/06/26 02:20:29;;;;;;;0.10;0.10;;;;;;;19.29;63.81;97477.69;4907124;29;20051;-69
2023/06/26 02:22:56;;;;;;;0.13;0.13;;;;;;;19.26;64.14;97471.97;4903894;29;20044;-69
2023/06/26 02:25:24;;;;;;;0.10;0.10;;;;;;;19.27;64.11;97474.41;4901281;29;20036;-69
2023/06/26 02:27:52;;;;;;;0.10;0.10;;;;;;;19.27;64.05;97477.13;4913469;29;20413;-69
2023/06/26 02:30:20;;;;;;;0.10;0.10;;;;;;;19.22;64.21;97476.22;4905694;29;20036;-69
2023/06/26 02:32:49;;;;;;;0.08;0.08;;;;;;;19.30;64.05;97473.94;4896939;29;20050;-69
2023/06/26 02:35:18;;;;;;;0.20;0.20;;;;;;;19.23;64.35;97470.56;4912403;29;20143;-68
2023/06/26 02:37:46;;;;;;;0.10;0.10;;;;;;;19.23;64.35;97465.16;4917156;29;20044;-69
2023/06/26 02:40:14;;;;;;;0.10;0.10;;;;;;;19.20;64.58;97464.88;4900100;29;20053;-69
2023/06/26 02:42:42;;;;;;;0.05;0.05;;;;;;;19.18;64.66;97464.28;4906743;29;20053;-69
2023/06/26 02:45:10;;;;;;;0.10;0.10;;;;;;;19.14;64.64;97466.69;4902633;29;20039;-69
2023/06/26 02:47:39;;;;;;;0.03;0.03;;;;;;;19.13;64.63;97458.81;4895244;29;20053;-69
2023/06/26 02:50:10;;;;;;;0.13;0.13;;;;;;;19.05;64.90;97460.91;4913905;29;20059;-69
2023/06/26 02:53:02;;;;;;;0.13;0.13;;;;;;;19.05;64.98;97470.91;4907890;29;20045;-69
2023/06/26 02:55:30;;;;;;;0.03;0.03;;;;;;;19.00;65.12;97468.94;4900064;29;20523;-71
2023/06/26 02:57:58;;;;;;;0.00;0.00;;;;;;;18.98;65.15;97462.16;4908439;29;20041;-68
2023/06/26 03:00:26;;;;;;;0.13;0.13;;;;;;;18.99;65.31;97466.50;4914437;29;20052;-69
2023/06/26 03:02:54;;;;;;;0.10;0.10;;;;;;;18.94;65.30;97463.72;4914225;29;20052;-70
2023/06/26 03:05:25;;;;;;;0.10;0.10;;;;;;;18.96;65.16;97462.41;4888077;29;20044;-69
2023/06/26 03:07:53;;;;;;;0.03;0.03;;;;;;;18.92;65.22;97463.97;4892063;29;20044;-69
2023/06/26 03:10:20;;;;;;;0.10;0.10;;;;;;;18.88;65.39;97459.31;4904065;29;20036;-73
2023/06/26 03:12:49;;;;;;;0.10;0.10;;;;;;;18.80;65.66;97459.75;4901034;29;20099;-73
2023/06/26 03:15:19;;;;;;;0.03;0.03;;;;;;;18.82;65.52;97458.44;4900120;29;20050;-72
2023/06/26 03:17:46;;;;;;;0.20;0.20;;;;;;;18.80;65.54;97451.63;4896622;29;20055;-72
2023/06/26 03:20:24;;;;;;;0.10;0.10;;;;;;;18.79;65.59;97455.44;4886996;29;20053;-72
2023/06/26 03:22:54;;;;;;;0.08;0.08;;;;;;;18.75;65.63;97467.81;4900104;29;20122;-72
2023/06/26 03:25:23;;;;;;;0.13;0.13;;;;;;;18.77;65.60;97460.25;4897220;29;20072;-72
2023/06/26 03:27:58;;;;;;;0.20;0.20;;;;;;;18.72;65.78;97462.88;4912203;29;20123;-72
2023/06/26 03:30:27;;;;;;;0.10;0.10;;;;;;;18.67;65.91;97458.25;4900146;29;20049;-73
2023/06/26 03:32:57;;;;;;;0.10;0.10;;;;;;;18.65;65.85;97457.66;4896098;29;20053;-75
2023/06/26 03:35:26;;;;;;;0.10;0.10;;;;;;;18.60;66.17;97460.28;4894300;29;20052;-72
2023/06/26 03:37:54;;;;;;;0.00;0.00;;;;;;;18.57;66.34;97461.63;4896181;29;20120;-72
2023/06/26 03:40:22;;;;;;;0.10;0.10;;;;;;;18.52;66.66;97456.09;4903217;29;20041;-73
2023/06/26 03:42:51;;;;;;;0.20;0.20;;;;;;;18.50;66.63;97458.22;4898071;29;20072;-72
2023/06/26 03:45:19;;;;;;;0.08;0.08;;;;;;;18.57;66.50;97468.88;4896371;29;20051;-73
2023/06/26 03:47:49;;;;;;;0.03;0.03;;;;;;;18.44;67.00;97463.81;4890552;29;20557;-73
2023/06/26 03:50:17;;;;;;;0.10;0.10;;;;;;;18.42;67.09;97458.66;4899824;29;20048;-73
2023/06/26 03:52:46;;;;;;;0.20;0.20;;;;;;;18.41;67.14;97459.72;4900544;29;20075;-74
2023/06/26 03:55:14;;;;;;;0.10;0.10;;;;;;;18.40;67.09;97458.06;4900895;29;20036;-73
2023/06/26 03:57:45;;;;;;;0.03;0.03;;;;;;;18.47;67.16;97457.91;4902247;29;20134;-76
2023/06/26 04:00:16;;;;;;;0.10;0.10;;;;;;;18.50;66.88;97458.22;4895824;29;20056;-73
2023/06/26 04:02:43;;;;;;;0.10;0.10;;;;;;;18.48;66.88;97454.94;4889560;29;20060;-73
2023/06/26 04:05:13;;;;;;;0.10;0.10;;;;;;;18.43;66.85;97449.47;4903013;29;20048;-74
2023/06/26 04:07:40;;;;;;;0.03;0.03;;;;;;;18.52;66.80;97450.69;4894196;29;20048;-74
2023/06/26 04:10:10;;;;;;;0.03;0.03;;;;;;;18.61;66.45;97456.50;4895166;29;20148;-74
2023/06/26 04:12:38;;;;;;;0.10;0.10;;;;;;;18.62;66.43;97448.16;4889863;29;20048;-73
2023/06/26 04:15:06;;;;;;;0.03;0.03;;;;;;;18.60;66.43;97457.56;4896113;29;20059;-76
2023/06/26 04:17:34;;;;;;;0.13;0.13;;;;;;;18.63;66.27;97449.78;4912905;29;20052;-74
2023/06/26 04:20:04;;;;;;;0.13;0.13;;;;;;;18.68;66.18;97452.59;4885105;29;20041;-74
2023/06/26 04:22:32;;;;;;;0.03;0.03;;;;;;;18.70;66.12;97452.31;4901119;29;20051;-73
2023/06/26 04:25:02;;;;;;;0.05;0.05;;;;;;;18.81;65.77;97450.56;4889237;29;20040;-73
2023/06/26 04:27:31;;;;;;;0.15;0.15;;;;;;;18.86;65.76;97447.94;4904503;29;20056;-74
2023/06/26 04:30:02;;;;;;;0.13;0.13;;;;;;;18.87;65.82;97452.28;4893824;29;20088;-73
2023/06/26 04:32:30;;;;;;;0.03;0.03;;;;;;;18.90;65.46;97449.88;4899004;29;20064;-74
2023/06/26 04:34:57;;;;;;;0.00;0.00;;;;;;;18.97;65.26;97436.19;4902627;29;20123;-73
2023/06/26 04:37:25;;;;;;;0.13;0.13;;;;;;;18.98;65.28;97444.03;4904391;29;20131;-73
2023/06/26 04:39:55;;;;;;;0.00;0.00;;;;;;;19.00;65.41;97438.34;4905822;29;20043;-74
2023/06/26 04:42:22;;;;;;;0.10;0.10;;;;;;;19.05;65.25;97441.97;4897562;29;20124;-73
2023/06/26 04:44:51;;;;;;;0.10;0.10;;;;;;;19.14;64.95;97428.78;4891629;29;20053;-76
2023/06/26 04:47:19;;;;;;;0.13;0.13;;;;;;;19.24;64.90;97442.44;4908246;29;20051;-74
2023/06/26 04:49:46;;;;;;;0.10;0.10;;;;;;;19.38;64.50;97443.69;4906897;29;20059;-74
2023/06/26 04:52:14;;;;;;;0.03;0.03;;;;;;;19.41;64.30;97434.25;4896073;29;20120;-74
2023/06/26 04:54:42;;;;;;;0.13;0.13;;;;;;;19.41;64.01;97435.03;4889078;29;20048;-74
2023/06/26 04:57:11;;;;;;;0.20;0.20;;;;;;;19.54;63.85;97435.75;4889269;29;20564;-74
2023/06/26 04:59:39;;;;;;;0.00;0.00;;;;;;;19.57;63.79;97441.47;4892518;29;20056;-74
2023/06/26 05:02:07;;;;;;;0.13;0.13;;;;;;;19.60;63.69;97435.56;4894827;29;20337;-74
2023/06/26 05:04:35;;;;;;;0.20;0.20;;;;;;;19.67;63.32;97428.03;4887382;29;20052;-74
2023/06/26 05:07:04;;;;;;;0.10;0.10;;;;;;;19.79;62.88;97430.56;4885896;29;20041;-74
2023/06/26 05:09:32;;;;;;;0.13;0.13;;;;;;;19.86;62.80;97431.16;4886017;29;20441;-73
2023/06/26 05:12:00;;;;;;;0.15;0.15;;;;;;;19.85;62.73;97437.66;4885237;29;20060;-74
2023/06/26 05:14:27;;;;;;;0.10;0.10;;;;;;;19.89;62.57;97438.78;4893964;29;20509;-73
2023/06/26 05:16:55;;;;;;;0.03;0.03;;;;;;;19.98;62.53;97431.81;4895219;29;20053;-74
2023/06/26 05:19:24;;;;;;;0.10;0.10;;;;;;;20.09;62.04;97440.84;4879557;29;20052;-74
2023/06/26 05:21:52;;;;;;;0.10;0.10;;;;;;;20.24;62.23;97435.56;4884983;29;20045;-75
2023/06/26 05:24:20;;;;;;;0.05;0.05;;;;;;;20.31;61.98;97433.44;4893536;29;20048;-74
2023/06/26 05:26:51;;;;;;;0.13;0.13;;;;;;;20.36;60.83;97435.38;4892600;29;20128;-74
2023/06/26 05:29:19;;;;;;;0.10;0.10;;;;;;;20.41;61.03;97427.28;4903825;29;20144;-74
2023/06/26 05:31:47;;;;;;;0.00;0.00;;;;;;;20.49;60.56;97429.50;4910547;29;20385;-73
2023/06/26 05:34:16;;;;;;;0.03;0.03;;;;;;;20.57;60.67;97422.75;4906923;29;20056;-74
2023/06/26 05:36:45;;;;;;;0.10;0.10;;;;;;;20.67;59.44;97431.78;4915227;29;20439;-74
2023/06/26 05:39:13;;;;;;;0.10;0.10;;;;;;;20.74;59.83;97418.81;4910412;29;20072;-74
2023/06/26 05:41:41;;;;;;;0.10;0.10;;;;;;;20.83;60.10;97425.34;4916183;29;20040;-74
2023/06/26 05:44:09;;;;;;;0.08;0.08;;;;;;;20.89;58.93;97424.28;4922240;29;20066;-74
2023/06/26 05:46:36;;;;;;;0.10;0.10;;;;;;;21.01;58.56;97409.69;4918403;29;20052;-74
2023/06/26 05:49:04;;;;;;;0.00;0.00;;;;;;;21.04;58.27;97422.72;4914199;29;20051;-74
2023/06/26 05:51:32;;;;;;;0.10;0.10;;;;;;;21.10;57.72;97418.94;4904206;29;20131;-74
2023/06/26 05:54:01;;;;;;;0.10;0.10;;;;;;;21.15;58.12;97411.66;4910046;29;20048;-74
2023/06/26 05:56:29;;;;;;;0.10;0.10;;;;;;;21.21;57.93;97423.34;4910274;29;20404;-74
2023/06/26 05:58:57;;;;;;;0.10;0.10;;;;;;;21.26;57.47;97425.28;4896355;29;20049;-73
2023/06/26 06:01:24;;;;;;;0.00;0.00;;;;;;;21.30;57.72;97418.22;4903746;29;20055;-74
2023/06/26 06:03:52;;;;;;;0.10;0.10;;;;;;;21.33;56.96;97421.22;4910581;29;20040;-76
2023/06/26 06:06:20;;;;;;;0.03;0.03;;;;;;;21.40;57.49;97421.78;4903237;29;20056;-76
2023/06/26 06:08:48;;;;;;;0.03;0.03;;;;;;;21.51;57.34;97420.72;4910219;29;20048;-74
2023/06/26 06:11:17;;;;;;;0.00;0.00;;;;;;;21.53;56.88;97431.31;4906778;29;20056;-74
2023/06/26 06:13:45;;;;;;;0.00;0.00;;;;;;;21.59;57.11;97417.47;4907617;29;20047;-74
2023/06/26 06:16:12;;;;;;;0.10;0.10;;;;;;;21.66;56.36;97413.69;4904749;29;20389;-74
2023/06/26 06:18:40;;;;;;;0.10;0.10;;;;;;;21.74;56.44;97411.25;4902740;29;20045;-75
2023/06/26 06:21:07;;;;;;;0.10;0.10;;;;;;;21.79;56.82;97413.16;4902402;29;20052;-73
2023/06/26 06:23:35;;;;;;;0.03;0.03;;;;;;;21.86;56.19;97414.50;4905555;29;20044;-73
2023/06/26 06:26:02;;;;;;;0.10;0.10;;;;;;;21.88;56.00;97409.63;4901134;29;20052;-73
2023/06/26 06:28:31;;;;;;;0.10;0.10;;;;;;;21.91;55.87;97402.81;4902262;29;20262;-73
2023/06/26 06:30:59;;;;;;;0.10;0.10;;;;;;;21.97;55.82;97408.00;4899951;29;20424;-73
2023/06/26 06:33:26;;;;;;;0.10;0.10;;;;;;;22.09;55.93;97404.22;4911101;29;20055;-74
2023/06/26 06:35:54;;;;;;;0.00;0.00;;;;;;;22.17;55.71;97399.03;4904730;29;20044;-76
2023/06/26 06:38:21;;;;;;;0.10;0.10;;;;;;;22.30;55.02;97406.66;4907012;29;20123;-73
2023/06/26 06:40:49;;;;;;;0.10;0.10;;;;;;;22.43;54.92;97407.13;4909042;29;20047;-73
2023/06/26 06:43:16;;;;;;;0.05;0.05;;;;;;;22.54;55.49;97412.28;4914252;29;20056;-74
2023/06/26 06:45:46;;;;;;;0.10;0.10;;;;;;;22.71;55.11;97406.53;4901190;29;20122;-73
2023/06/26 06:48:13;;;;;;;0.05;0.05;;;;;;;22.82;55.09;97410.91;4905020;29;20132;-76
2023/06/26 06:50:41;;;;;;;0.10;0.10;;;;;;;22.98;53.95;97400.75;4903302;29;20520;-73
2023/06/26 06:53:09;;;;;;;0.03;0.03;;;;;;;23.11;53.30;97400.16;4908757;29;20143;-76
2023/06/26 06:55:36;;;;;;;0.03;0.03;;;;;;;23.25;52.42;97394.91;4910814;29;20064;-73
2023/06/26 06:58:04;;;;;;;0.13;0.13;;;;;;;23.35;52.28;97394.84;4904713;29;20415;-73
2023/06/26 07:00:32;;;;;;;0.05;0.05;;;;;;;23.43;51.86;97395.06;4907791;29;20051;-73
2023/06/26 07:03:01;;;;;;;0.10;0.10;;;;;;;23.58;51.38;97396.09;4904523;29;20105;-73
2023/06/26 07:05:29;;;;;;;0.03;0.03;;;;;;;23.76;51.30;97392.72;4913752;29;20048;-74
2023/06/26 07:07:57;;;;;;;0.03;0.03;;;;;;;23.90;50.48;97393.66;4910094;29;20105;-73
2023/06/26 07:10:28;;;;;;;0.10;0.10;;;;;;;24.06;50.49;97392.47;4911171;29;20115;-73
2023/06/26 07:12:56;;;;;;;0.10;0.10;;;;;;;24.24;50.00;97392.88;4904915;29;20047;-73
2023/06/26 07:15:23;;;;;;;0.00;0.00;;;;;;;24.37;48.16;97382.09;4910793;29;20051;-73
2023/06/26 07:17:52;;;;;;;0.00;0.00;;;;;;;24.59;46.92;97386.25;4902005;29;20100;-73
2023/06/26 07:20:21;;;;;;;0.10;0.10;;;;;;;24.72;45.50;97386.34;4903619;29;20111;-74
2023/06/26 07:22:49;;;;;;;0.10;0.10;;;;;;;24.83;46.02;97387.84;4907459;29;20126;-74
2023/06/26 07:25:17;;;;;;;0.00;0.00;;;;;;;24.99;45.55;97395.91;4908272;29;20123;-74
2023/06/26 07:27:44;;;;;;;0.00;0.00;;;;;;;25.15;44.39;97387.22;4906930;29;20051;-76
2023/06/26 07:30:12;;;;;;;0.00;0.00;;;;;;;25.27;43.51;97386.78;4914402;29;20107;-74
2023/06/26 07:32:42;;;;;;;0.03;0.03;;;;;;;25.44;43.26;97387.06;4905392;29;20100;-74
2023/06/26 07:35:09;;;;;;;0.10;0.10;;;;;;;25.59;43.37;97391.50;4909030;29;20055;-73
2023/06/26 07:37:38;;;;;;;0.00;0.00;;;;;;;25.68;42.19;97394.41;4901525;29;20040;-73
2023/06/26 07:40:06;;;;;;;0.08;0.08;;;;;;;25.62;41.94;97384.69;4911799;29;20056;-73
2023/06/26 07:42:34;;;;;;;0.00;0.00;;;;;;;25.89;41.97;97382.06;4900924;29;20374;-73
2023/06/26 07:45:01;;;;;;;0.00;0.00;;;;;;;25.95;41.67;97376.22;4902979;29;20524;-73
2023/06/26 07:47:29;;;;;;;0.00;0.00;;;;;;;26.07;42.15;97374.91;4907464;29;20048;-76
2023/06/26 07:49:57;;;;;;;0.00;0.00;;;;;;;26.17;41.83;97372.00;4894576;29;20127;-73
2023/06/26 07:52:24;;;;;;;0.00;0.00;;;;;;;26.43;40.82;97367.72;4900594;29;20119;-74
2023/06/26 07:54:53;;;;;;;0.03;0.03;;;;;;;26.44;39.63;97372.09;4902775;29;20044;-73
2023/06/26 07:57:21;;;;;;;0.00;0.00;;;;;;;26.53;39.03;97366.72;4915290;29;20044;-75
2023/06/26 07:59:48;;;;;;;0.03;0.03;;;;;;;26.81;38.48;97360.13;4901366;29;20108;-75
2023/06/26 08:02:16;;;;;;;0.00;0.00;;;;;;;26.93;37.67;97356.91;4907572;29;20052;-75
2023/06/26 08:04:44;;;;;;;0.10;0.10;;;;;;;26.85;38.24;97361.16;4904672;29;20049;-75
2023/06/26 08:07:13;;;;;;;0.03;0.03;;;;;;;27.02;37.68;97357.81;4901889;29;20517;-75
2023/06/26 08:09:41;;;;;;;0.00;0.00;;;;;;;27.23;36.49;97352.69;4898959;29;20107;-75
2023/06/26 08:12:10;;;;;;;0.10;0.10;;;;;;;27.31;37.38;97355.50;4909267;29;20107;-75
2023/06/26 08:14:40;;;;;;;0.10;0.10;;;;;;;27.49;36.44;97348.28;4907934;29;20572;-75
2023/06/26 08:17:07;;;;;;;0.00;0.00;;;;;;;27.61;36.45;97362.28;4900090;29;20056;-75
2023/06/26 08:19:35;;;;;;;0.00;0.00;;;;;;;27.73;36.29;97357.03;4894186;29;20040;-75
2023/06/26 08:22:03;;;;;;;0.00;0.00;;;;;;;27.59;37.10;97353.56;4898246;29;20109;-75
2023/06/26 08:24:30;;;;;;;0.00;0.00;;;;;;;27.89;37.49;97357.50;4915005;29;20407;-75
2023/06/26 08:26:58;;;;;;;0.00;0.00;;;;;;;28.18;37.08;97358.97;4908124;29;20123;-75
2023/06/26 08:29:28;;;;;;;0.00;0.00;;;;;;;28.34;36.32;97357.47;4911581;29;20508;-75
2023/06/26 08:31:55;;;;;;;0.00;0.00;;;;;;;28.45;35.64;97347.81;4902699;29;20058;-76
2023/06/26 08:34:23;;;;;;;0.00;0.00;;;;;;;28.70;34.77;97358.09;4897150;29;20040;-74
2023/06/26 08:36:50;;;;;;;0.00;0.00;;;;;;;28.77;32.66;97354.88;4907988;29;20051;-74
2023/06/26 08:39:18;;;;;;;0.00;0.00;;;;;;;28.68;31.66;97346.63;4899604;29;20048;-75
2023/06/26 08:41:46;;;;;;;0.10;0.10;;;;;;;28.75;31.50;97349.75;4895306;29;20052;-75
2023/06/26 08:44:13;;;;;;;0.00;0.00;;;;;;;28.80;31.68;97343.31;4899411;29;20036;-75
2023/06/26 08:46:43;;;;;;;0.00;0.00;;;;;;;29.05;31.23;97341.75;4907485;29;20139;-75
2023/06/26 08:49:15;;;;;;;0.00;0.00;;;;;;;29.01;31.27;97349.81;4897560;29;20092;-75
2023/06/26 08:51:46;;;;;;;0.00;0.00;;;;;;;28.96;30.71;97343.69;4909714;29;20546;-74
2023/06/26 08:54:16;;;;;;;0.03;0.03;;;;;;;28.87;31.38;97340.88;4904433;29;20054;-75
2023/06/26 08:56:48;;;;;;;0.00;0.00;;;;;;;29.24;31.05;97334.03;4903781;29;20080;-75
2023/06/26 08:59:16;;;;;;;0.00;0.00;;;;;;;29.52;30.82;97327.09;4904266;29;20493;-76
2023/06/26 09:01:45;;;;;;;0.10;0.10;;;;;;;29.58;30.06;97337.97;4897987;29;20053;-75
2023/06/26 09:04:14;;;;;;;0.00;0.00;;;;;;;29.58;30.26;97333.28;4908397;29;20575;-75
2023/06/26 09:06:42;;;;;;;0.00;0.00;;;;;;;29.56;30.52;97336.34;4905153;29;20072;-75
2023/06/26 09:09:10;;;;;;;0.00;0.00;;;;;;;29.78;30.25;97337.31;4912729;29;20048;-75
2023/06/26 09:11:38;;;;;;;0.00;0.00;;;;;;;29.97;29.66;97337.78;4889782;29;20093;-74
2023/06/26 09:14:07;;;;;;;0.00;0.00;;;;;;;29.98;29.64;97325.66;4913337;29;20453;-75
2023/06/26 09:16:40;;;;;;;0.00;0.00;;;;;;;29.86;29.64;97331.78;4906226;29;20047;-75
2023/06/26 09:19:12;;;;;;;0.00;0.00;;;;;;;30.02;30.02;97323.84;4893943;29;20048;-75
2023/06/26 09:21:40;;;;;;;0.00;0.00;;;;;;;29.97;29.84;97329.53;4914083;29;20040;-75
2023/06/26 09:24:09;;;;;;;0.00;0.00;;;;;;;30.05;28.76;97312.19;4900245;29;20565;-75
2023/06/26 09:26:37;;;;;;;0.00;0.00;;;;;;;29.69;28.54;97328.25;4906660;29;20076;-74
2023/06/26 09:29:06;;;;;;;0.00;0.00;;;;;;;29.56;28.53;97325.34;4900418;29;20124;-75
2023/06/26 09:31:33;;;;;;;0.10;0.10;;;;;;;29.51;29.26;97319.97;4905925;29;20461;-75
2023/06/26 09:34:08;;;;;;;0.03;0.03;;;;;;;29.46;28.95;97322.91;4900078;29;20044;-75
2023/06/26 09:36:37;;;;;;;0.00;0.00;;;;;;;29.78;28.74;97326.28;4903587;29;20048;-75
2023/06/26 09:39:10;;;;;;;0.00;0.00;;;;;;;29.89;29.24;97316.56;4889866;29;20086;-75
2023/06/26 09:41:39;;;;;;;;;;;;;;;30.46;27.83;97310.75;4909902;29;20102;-75
2023/06/26 09:44:07;;;;;;;0.03;0.03;;;;;;;30.31;28.29;97322.31;4909177;29;19930;-75
2023/06/26 09:46:35;;;;;;;0.00;0.00;;;;;;;29.65;29.21;97311.56;4907383;29;20048;-74
2023/06/26 09:49:05;;;;;;;0.00;0.00;;;;;;;29.84;28.84;97309.28;4914307;29;20048;-75
2023/06/26 09:51:33;;;;;;;0.00;0.00;;;;;;;29.88;28.47;97310.25;4905738;29;20052;-75
2023/06/26 09:54:02;;;;;;;0.00;0.00;;;;;;;29.83;28.91;97304.09;4909479;29;20048;-75
2023/06/26 09:56:32;;;;;;;0.00;0.00;;;;;;;30.01;28.24;97299.38;4904434;29;20449;-75
2023/06/26 09:59:01;;;;;;;0.00;0.00;;;;;;;30.30;28.26;97302.22;4909396;29;20126;-74
2023/06/26 10:01:30;;;;;;;0.00;0.00;;;;;;;30.59;28.09;97312.50;4897558;29;20045;-74
2023/06/26 10:03:58;;;;;;;0.00;0.00;;;;;;;30.78;27.88;97306.56;4911227;29;20099;-75
2023/06/26 10:06:28;;;;;;;0.00;0.00;;;;;;;30.55;27.32;97295.81;4909418;29;20474;-74
2023/06/26 10:08:57;;;;;;;0.00;0.00;;;;;;;30.61;27.86;97304.72;4902466;29;20041;-74
2023/06/26 10:11:30;;;;;;;0.00;0.00;;;;;;;30.43;27.78;97297.63;4899305;29;20059;-75
2023/06/26 10:13:58;;;;;;;0.00;0.00;;;;;;;30.50;27.90;97292.41;4910288;29;20048;-77
2023/06/26 10:16:43;;;;;;;0.05;0.05;;;;;;;30.45;27.51;97300.84;4912671;29;20068;-76
2023/06/26 10:19:11;;;;;;;0.00;0.00;;;;;;;30.38;27.65;97293.13;4896459;29;20052;-76
2023/06/26 10:21:39;;;;;;;0.00;0.00;;;;;;;30.51;27.90;97294.03;4910047;29;20048;-77
2023/06/26 10:24:07;;;;;;;0.00;0.00;;;;;;;30.83;27.65;97290.66;4914812;29;20058;-74
2023/06/26 10:26:39;;;;;;;0.00;0.00;;;;;;;30.98;27.37;97303.03;4905196;29;20503;-74
2023/06/26 10:29:07;;;;;;;0.00;0.00;;;;;;;31.09;26.66;97282.22;4899207;29;20059;-73
2023/06/26 10:31:36;;;;;;;0.00;0.00;;;;;;;31.16;27.06;97288.00;4909817;29;20059;-74
2023/06/26 10:34:04;;;;;;;0.00;0.00;;;;;;;31.29;27.30;97280.63;4906573;29;20108;-74
2023/06/26 10:36:32;;;;;;;0.00;0.00;;;;;;;31.45;27.10;97284.41;4913529;29;20539;-74
2023/06/26 10:39:04;;;;;;;0.10;0.10;;;;;;;31.62;27.33;97289.75;4903234;29;20047;-74
2023/06/26 10:41:38;;;;;;;0.00;0.00;;;;;;;31.82;26.57;97282.59;4917404;29;20504;-74
2023/06/26 10:44:23;;;;;;;0.10;0.10;;;;;;;30.97;27.61;97280.16;4903990;29;20242;-74
2023/06/26 10:46:52;;;;;;;0.00;0.00;;;;;;;31.29;27.36;97281.44;4910739;29;20051;-74
2023/06/26 10:49:21;;;;;;;0.00;0.00;;;;;;;31.37;27.11;97271.47;4904598;29;20048;-74
2023/06/26 10:51:49;;;;;;;0.00;0.00;;;;;;;31.33;27.30;97271.34;4905375;29;20074;-74
2023/06/26 10:54:18;;;;;;;0.10;0.10;;;;;;;31.47;27.25;97276.56;4901785;29;20048;-74
2023/06/26 10:56:48;;;;;;;0.00;0.00;;;;;;;31.17;27.97;97278.59;4907516;29;20484;-74
2023/06/26 10:59:18;;;;;;;0.03;0.03;;;;;;;31.28;27.66;97260.50;4906823;29;20060;-75
2023/06/26 11:01:46;;;;;;;0.00;0.00;;;;;;;31.49;27.43;97271.53;4896445;29;20076;-74
2023/06/26 11:04:16;;;;;;;0.00;0.00;;;;;;;31.42;27.39;97259.41;4910464;29;20058;-74
2023/06/26 11:06:47;;;;;;;0.00;0.00;;;;;;;31.65;26.77;97267.03;4910918;29;20077;-74
2023/06/26 11:09:18;;;;;;;;;;;;;;;31.73;26.89;97257.03;4911812;29;20059;-74
2023/06/26 11:11:59;;;;;;;0.03;0.03;;;;;;;31.18;27.43;97260.91;4906785;29;19991;-74
2023/06/26 11:14:27;;;;;;;0.00;0.00;;;;;;;30.81;28.35;97257.09;4898999;29;20048;-74
2023/06/26 11:16:56;;;;;;;0.00;0.00;;;;;;;30.89;28.25;97261.75;4905026;29;20103;-74
2023/06/26 11:19:26;;;;;;;0.03;0.03;;;;;;;31.01;27.72;97255.50;4891816;29;20058;-73
2023/06/26 11:22:05;;;;;;;0.00;0.00;;;;;;;31.27;27.47;97256.13;4900368;29;20052;-74
2023/06/26 11:24:33;;;;;;;0.00;0.00;;;;;;;31.50;27.01;97264.84;4895308;29;20036;-74
2023/06/26 11:27:03;;;;;;;0.00;0.00;;;;;;;31.38;26.45;97251.81;4909707;29;20058;-74
2023/06/26 11:29:33;;;;;;;0.00;0.00;;;;;;;31.40;27.03;97245.16;4903184;29;20100;-74
2023/06/26 11:32:06;;;;;;;0.00;0.00;;;;;;;31.32;27.03;97241.34;4907704;29;20088;-74
2023/06/26 11:34:34;;;;;;;0.00;0.00;;;;;;;31.66;26.61;97249.31;4902420;29;20056;-74
2023/06/26 11:37:02;;;;;;;0.00;0.00;;;;;;;31.72;26.15;97249.91;4907685;29;20154;-74
2023/06/26 11:39:30;;;;;;;0.00;0.00;;;;;;;31.82;26.04;97248.66;4908519;29;20047;-74
2023/06/26 11:41:58;;;;;;;0.00;0.00;;;;;;;31.44;26.00;97237.81;4905687;29;20040;-74